New Colony, Texas
Current Conditions -  °F | °C
As of 10:35 PM on Thursday 18 Dec 2014 (Local Time) from KASL Reporting Station
Overcast Overcast  
Wind Chill: 51°   Ceiling: 500
Heat Index: 51°   Visibility: 5mi
Dew Point: 48°   Wind: 0mph
Humidity: 90%   Direction: NA
Pressure: 30.19"   Gusts: NA
Location:  33.0065°N, 94.3775°W
Report Text: KASL 190435Z AUTO 00000KT 5SM OVC005 11/09 A3019 RMK AO1 T01050090
Loading
Personal Weather Stations






























Interactive Weather Map New forecast layout! Learn more

10-Day Weather Forecast

Advertisements
Track Severe Weather on mobile